WetterOnline ( https://www.wetteronline.de )

Wetter aktuell Lübeck

Aktuelles Wetter: Lübeck/Blankensee (15m)

6-stündlich | Neueste Meldungen
Ortszeit Temperatur Wetter
Mo, 24.06. 14:00 22.1° C wolkig
Mo, 24.06. 8:00 14.7° C wolkenlos
Mo, 24.06. 2:00 11.8° C wolkenlos
So, 23.06. 20:00 20.1° C wolkenlos
So, 23.06. 14:00 19.7° C bewölkt
So, 23.06. 8:00 15.6° C leicht bewölkt
So, 23.06. 2:00 12.4° C wolkenlos
Sa, 22.06. 20:00 19.6° C wolkenlos
Ortszeit Temperatur Wetter
Mo, 24.06. 18:00 22.2° C wolkenlos
Mo, 24.06. 17:50 22.2° C wolkenlos
Mo, 24.06. 17:40 21.7° C leicht bewölkt
Mo, 24.06. 17:30 22.8° C bewölkt
Mo, 24.06. 17:20 22.8° C bewölkt
Mo, 24.06. 17:10 22.0° C bewölkt
Mo, 24.06. 17:00 22.4° C wolkig
Mo, 24.06. 16:30 23.3° C wolkig
Mo, 24.06. 16:00 23.3° C leicht bewölkt
Mo, 24.06. 15:30 23.3° C leicht bewölkt
Mo, 24.06. 15:00 22.8° C fast wolkenlos
Mo, 24.06. 14:30 23.1° C leicht bewölkt
Ortszeit Relative Feuchte Sichtweite
Mo, 24.06. 14:00 53% >70 km
Mo, 24.06. 8:00 87% 26 km
Mo, 24.06. 2:00 92% 35 km
So, 23.06. 20:00 55% 60 km
So, 23.06. 14:00 58% 60 km
So, 23.06. 8:00 83% 19 km
So, 23.06. 2:00 87% 50 km
Sa, 22.06. 20:00 64% 35 km
Ortszeit Relative Feuchte Sichtweite
Mo, 24.06. 18:00 61% 55 km
Mo, 24.06. 17:50 61% -
Mo, 24.06. 17:40 60% -
Mo, 24.06. 17:30 62% 50 km
Mo, 24.06. 17:20 62% -
Mo, 24.06. 17:10 62% -
Mo, 24.06. 17:00 59% >70 km
Mo, 24.06. 16:30 55% 60 km
Mo, 24.06. 16:00 53% >70 km
Mo, 24.06. 15:30 52% 60 km
Mo, 24.06. 15:00 56% >70 km
Mo, 24.06. 14:30 52% 35 km
Ortszeit Niederschlagsmenge Niederschlagsart
Mo, 24.06. 14:00 0.0 l/m2 in 6 Std. -
Mo, 24.06. 8:00 0.0 l/m2 in 12 Std. -
Mo, 24.06. 2:00 0.0 l/m2 in 6 Std. -
So, 23.06. 20:00 0.0 l/m2 in 12 Std. -
So, 23.06. 14:00 0.0 l/m2 in 6 Std. -
So, 23.06. 8:00 0.0 l/m2 in 12 Std. -
So, 23.06. 2:00 0.0 l/m2 in 6 Std. -
Sa, 22.06. 20:00 0.0 l/m2 in 12 Std. -
Ortszeit Niederschlagsmenge Niederschlagsart
Mo, 24.06. 18:00 0.0 l/m2 in 1 Std. -
Mo, 24.06. 17:50 keine Meldung -
Mo, 24.06. 17:40 keine Meldung -
Mo, 24.06. 17:30 0.0 l/m2 in 30 Min -
Mo, 24.06. 17:20 keine Meldung -
Mo, 24.06. 17:10 keine Meldung -
Mo, 24.06. 17:00 0.0 l/m2 in 1 Std. -
Mo, 24.06. 16:30 0.0 l/m2 in 30 Min -
Mo, 24.06. 16:00 0.0 l/m2 in 1 Std. -
Mo, 24.06. 15:30 0.0 l/m2 in 30 Min -
Mo, 24.06. 15:00 0.0 l/m2 in 1 Std. -
Mo, 24.06. 14:30 0.0 l/m2 in 30 Min -
Ortszeit Stärke Spitze Richtung
km/h Bft. km/h Grad Sektor
Mo, 24.06. 14:00 7 2 18 260° W
Mo, 24.06. 8:00 6 1 11 320° NW
Mo, 24.06. 2:00 2 1 24 220° SW
So, 23.06. 20:00 15 3 35 300° NW
So, 23.06. 14:00 14 3 29 280° W
So, 23.06. 8:00 13 3 22 260° W
So, 23.06. 2:00 7 2 36 250° W
Sa, 22.06. 20:00 22 4 43 280° W
Ortszeit Stärke Spitze Richtung
km/h Bft. km/h Grad Sektor
Mo, 24.06. 18:00 14 3 25 20° N
Mo, 24.06. 17:50 14 3 - 20° N
Mo, 24.06. 17:40 14 3 - 40° NO
Mo, 24.06. 17:30 14 3 22 50° NO
Mo, 24.06. 17:20 14 3 - 50° NO
Mo, 24.06. 17:10 14 3 - 60° NO
Mo, 24.06. 17:00 11 2 22 50° NO
Mo, 24.06. 16:30 11 2 18 30° NO
Mo, 24.06. 16:00 7 2 14 290° W
Mo, 24.06. 15:30 7 2 15 280° W
Mo, 24.06. 15:00 7 2 18 250° W
Mo, 24.06. 14:30 6 1 15 260° W
Ortszeit Untergrenze Bedeckung Gattung
total tief tief mittel hoch
Mo, 24.06. 14:00 1200 m 5/8 5/8 - - -
Mo, 24.06. 8:00 - 0/8 0/8 - - -
Mo, 24.06. 2:00 - 0/8 0/8 - - -
So, 23.06. 20:00 - 0/8 0/8 - - -
So, 23.06. 14:00 1170 m 7/8 7/8 - - -
So, 23.06. 8:00 330 m 4/8 4/8 - - -
So, 23.06. 2:00 - 0/8 0/8 - - -
Sa, 22.06. 20:00 - 0/8 0/8 - - -
Ortszeit Bedeckungsgrad in Achtel und Wolkenuntergrenze
Mo, 24.06. 18:00 keine Wolken
Mo, 24.06. 17:50 keine Wolken
Mo, 24.06. 17:40 2
Mo, 24.06. 17:30 7(1230m)
Mo, 24.06. 17:20 7(1230m)
Mo, 24.06. 17:10 7
Mo, 24.06. 17:00 6(1290m)
Mo, 24.06. 16:30 6(1260m)
Mo, 24.06. 16:00 4(1290m)
Mo, 24.06. 15:30 2(1260m)
Mo, 24.06. 15:00 1(1260m)
Mo, 24.06. 14:30 2(1230m)
Ortszeit Luftdruck NN (hPa) Tendenz (hPa in 3 Std.)
Mo, 24.06. 14:00 1021 - 0,6
Mo, 24.06. 8:00 1021 + 0,9
Mo, 24.06. 2:00 1020 + 0,2
So, 23.06. 20:00 1019 + 0,8
So, 23.06. 14:00 1018 + 0,5
So, 23.06. 8:00 1017 + 1,4
So, 23.06. 2:00 1014 + 0,9
Sa, 22.06. 20:00 1011 + 1,1
Ortszeit Luftdruck NN (hPa) Tendenz (hPa in 3 Std.)
Mo, 24.06. 18:00 1020 - 0,6
Mo, 24.06. 17:50 1020 keine Meldung
Mo, 24.06. 17:40 1020 keine Meldung
Mo, 24.06. 17:30 1020 - 0,7
Mo, 24.06. 17:20 1020 keine Meldung
Mo, 24.06. 17:10 1020 keine Meldung
Mo, 24.06. 17:00 1020 - 0,8
Mo, 24.06. 16:30 1020 - 0,8
Mo, 24.06. 16:00 1021 - 0,5
Mo, 24.06. 15:30 1021 - 0,6
Mo, 24.06. 15:00 1021 - 0,5
Mo, 24.06. 14:30 1021 - 0,6
Ortszeit Schneehöhe (cm)
Mo, 24.06. 14:00 0
Mo, 24.06. 8:00 0
Mo, 24.06. 2:00 0
So, 23.06. 20:00 0
So, 23.06. 14:00 0
So, 23.06. 8:00 0
So, 23.06. 2:00 0
Sa, 22.06. 20:00 0
Ortszeit Schneehöhe (cm)
Mo, 24.06. 18:00 0
Mo, 24.06. 17:50 0
Mo, 24.06. 17:40 -
Mo, 24.06. 17:30 0
Mo, 24.06. 17:20 0
Mo, 24.06. 17:10 -
Mo, 24.06. 17:00 0
Mo, 24.06. 16:30 0
Mo, 24.06. 16:00 0
Mo, 24.06. 15:30 0
Mo, 24.06. 15:00 0
Mo, 24.06. 14:30 0
Link zu dieser Seite / Seite empfehlen

Das Wetter in ...